sensor_id;sensor_type;location;lat;lon;timestamp;pressure;altitude;pressure_sealevel;temperature;humidity
19114;BME280;9689;51.052;13.772;2022-08-26T00:00:04;100069.56;;;20.17;96.55
19114;BME280;9689;51.052;13.772;2022-08-26T00:05:11;100073.09;;;20.16;96.53
19114;BME280;9689;51.052;13.772;2022-08-26T00:10:11;100063.47;;;20.17;96.74
19114;BME280;9689;51.052;13.772;2022-08-26T00:15:15;100058.00;;;20.21;96.33
19114;BME280;9689;51.052;13.772;2022-08-26T00:20:22;100064.34;;;20.17;95.99
19114;BME280;9689;51.052;13.772;2022-08-26T00:25:25;100052.25;;;20.00;96.75
19114;BME280;9689;51.052;13.772;2022-08-26T00:30:28;100052.81;;;19.89;97.89
19114;BME280;9689;51.052;13.772;2022-08-26T00:35:30;100044.97;;;19.89;98.00
19114;BME280;9689;51.052;13.772;2022-08-26T00:40:34;100044.81;;;19.92;97.90
19114;BME280;9689;51.052;13.772;2022-08-26T00:45:41;100048.16;;;19.94;97.94
19114;BME280;9689;51.052;13.772;2022-08-26T00:50:47;100040.78;;;19.87;97.54
19114;BME280;9689;51.052;13.772;2022-08-26T00:55:53;100037.50;;;19.83;98.30
19114;BME280;9689;51.052;13.772;2022-08-26T01:00:57;100033.22;;;19.66;98.92
19114;BME280;9689;51.052;13.772;2022-08-26T01:06:00;100034.34;;;19.60;99.59
19114;BME280;9689;51.052;13.772;2022-08-26T01:11:03;100025.31;;;19.51;100.00
19114;BME280;9689;51.052;13.772;2022-08-26T01:16:10;100032.84;;;19.56;100.00
19114;BME280;9689;51.052;13.772;2022-08-26T01:21:18;100034.72;;;19.54;100.00
19114;BME280;9689;51.052;13.772;2022-08-26T01:26:29;100034.78;;;19.52;100.00
19114;BME280;9689;51.052;13.772;2022-08-26T01:31:35;100025.78;;;19.42;100.00
19114;BME280;9689;51.052;13.772;2022-08-26T01:36:38;100023.41;;;19.37;100.00
19114;BME280;9689;51.052;13.772;2022-08-26T01:41:42;100035.00;;;19.32;100.00
19114;BME280;9689;51.052;13.772;2022-08-26T01:46:45;100030.63;;;19.32;100.00
19114;BME280;9689;51.052;13.772;2022-08-26T01:51:50;100026.34;;;19.31;100.00
19114;BME280;9689;51.052;13.772;2022-08-26T01:56:54;100027.53;;;19.25;100.00
19114;BME280;9689;51.052;13.772;2022-08-26T02:01:55;100030.19;;;19.24;100.00
19114;BME280;9689;51.052;13.772;2022-08-26T02:06:57;100035.84;;;19.32;100.00
19114;BME280;9689;51.052;13.772;2022-08-26T02:12:00;100034.03;;;19.17;100.00
19114;BME280;9689;51.052;13.772;2022-08-26T02:17:03;100028.09;;;19.14;100.00
19114;BME280;9689;51.052;13.772;2022-08-26T02:22:09;100034.97;;;19.15;100.00
19114;BME280;9689;51.052;13.772;2022-08-26T02:27:17;100032.78;;;19.24;100.00
19114;BME280;9689;51.052;13.772;2022-08-26T02:32:19;100037.53;;;19.33;100.00
19114;BME280;9689;51.052;13.772;2022-08-26T02:37:21;100026.03;;;19.37;99.35
19114;BME280;9689;51.052;13.772;2022-08-26T02:42:25;100025.59;;;19.29;99.61
19114;BME280;9689;51.052;13.772;2022-08-26T02:47:25;100026.34;;;19.31;99.69
19114;BME280;9689;51.052;13.772;2022-08-26T02:52:27;100026.84;;;19.22;99.36
19114;BME280;9689;51.052;13.772;2022-08-26T02:57:30;100013.59;;;19.09;99.82
19114;BME280;9689;51.052;13.772;2022-08-26T03:02:31;100020.28;;;19.14;100.00
19114;BME280;9689;51.052;13.772;2022-08-26T03:07:32;100022.69;;;19.18;100.00
19114;BME280;9689;51.052;13.772;2022-08-26T03:12:34;100023.47;;;19.20;99.73
19114;BME280;9689;51.052;13.772;2022-08-26T03:17:35;100019.16;;;19.02;99.76
19114;BME280;9689;51.052;13.772;2022-08-26T03:22:38;100016.22;;;18.91;100.00
19114;BME280;9689;51.052;13.772;2022-08-26T03:27:41;100015.38;;;18.91;100.00
19114;BME280;9689;51.052;13.772;2022-08-26T03:32:42;100012.03;;;19.06;100.00
19114;BME280;9689;51.052;13.772;2022-08-26T03:37:42;100012.88;;;18.89;100.00
19114;BME280;9689;51.052;13.772;2022-08-26T03:42:45;100009.91;;;18.79;100.00
19114;BME280;9689;51.052;13.772;2022-08-26T03:47:47;100005.06;;;18.71;100.00
19114;BME280;9689;51.052;13.772;2022-08-26T03:52:48;100002.41;;;18.73;100.00
19114;BME280;9689;51.052;13.772;2022-08-26T03:57:51;100006.97;;;18.68;100.00
19114;BME280;9689;51.052;13.772;2022-08-26T04:02:53;100006.38;;;18.63;100.00
19114;BME280;9689;51.052;13.772;2022-08-26T04:07:54;99997.63;;;18.64;100.00
19114;BME280;9689;51.052;13.772;2022-08-26T04:12:58;99999.94;;;18.70;100.00
19114;BME280;9689;51.052;13.772;2022-08-26T04:17:58;100002.84;;;18.64;100.00
19114;BME280;9689;51.052;13.772;2022-08-26T04:22:59;99993.13;;;18.67;100.00
19114;BME280;9689;51.052;13.772;2022-08-26T04:28:02;100007.16;;;18.65;100.00
19114;BME280;9689;51.052;13.772;2022-08-26T04:33:02;100011.44;;;18.66;100.00
19114;BME280;9689;51.052;13.772;2022-08-26T04:38:11;100008.41;;;18.73;100.00
19114;BME280;9689;51.052;13.772;2022-08-26T04:43:14;100007.88;;;18.84;100.00
19114;BME280;9689;51.052;13.772;2022-08-26T04:48:14;100001.78;;;18.85;100.00
19114;BME280;9689;51.052;13.772;2022-08-26T04:53:16;100003.97;;;18.93;100.00
19114;BME280;9689;51.052;13.772;2022-08-26T04:58:20;100006.19;;;19.01;100.00
19114;BME280;9689;51.052;13.772;2022-08-26T05:03:22;100009.84;;;18.97;99.87
19114;BME280;9689;51.052;13.772;2022-08-26T05:08:24;100007.09;;;19.00;99.99
19114;BME280;9689;51.052;13.772;2022-08-26T05:13:27;100000.13;;;19.00;99.30
19114;BME280;9689;51.052;13.772;2022-08-26T05:18:28;100005.91;;;19.07;99.17
19114;BME280;9689;51.052;13.772;2022-08-26T05:23:29;100008.50;;;19.07;98.70
19114;BME280;9689;51.052;13.772;2022-08-26T05:28:32;100009.44;;;19.06;98.84
19114;BME280;9689;51.052;13.772;2022-08-26T05:33:33;100012.94;;;19.05;98.68
19114;BME280;9689;51.052;13.772;2022-08-26T05:38:34;100006.41;;;19.14;98.23
19114;BME280;9689;51.052;13.772;2022-08-26T05:43:36;100003.41;;;19.22;97.76
19114;BME280;9689;51.052;13.772;2022-08-26T05:48:40;100007.28;;;19.31;97.50
19114;BME280;9689;51.052;13.772;2022-08-26T05:53:42;100012.31;;;19.34;96.77
19114;BME280;9689;51.052;13.772;2022-08-26T05:58:55;100012.50;;;19.47;96.13
19114;BME280;9689;51.052;13.772;2022-08-26T06:03:59;100010.25;;;19.40;96.34
19114;BME280;9689;51.052;13.772;2022-08-26T06:09:02;100016.03;;;19.46;96.29
19114;BME280;9689;51.052;13.772;2022-08-26T06:14:06;100012.38;;;19.66;95.43
19114;BME280;9689;51.052;13.772;2022-08-26T06:19:08;100024.28;;;19.86;94.18
19114;BME280;9689;51.052;13.772;2022-08-26T06:24:11;100015.53;;;19.87;93.11
19114;BME280;9689;51.052;13.772;2022-08-26T06:29:33;100028.53;;;20.05;92.17
19114;BME280;9689;51.052;13.772;2022-08-26T06:34:36;100021.16;;;20.28;91.11
19114;BME280;9689;51.052;13.772;2022-08-26T06:39:36;100024.94;;;20.38;90.63
19114;BME280;9689;51.052;13.772;2022-08-26T06:44:41;100022.72;;;20.46;90.24
19114;BME280;9689;51.052;13.772;2022-08-26T06:49:43;100014.19;;;20.59;89.52
19114;BME280;9689;51.052;13.772;2022-08-26T06:54:43;100015.84;;;20.60;89.16
19114;BME280;9689;51.052;13.772;2022-08-26T06:59:46;100021.44;;;20.84;88.12
19114;BME280;9689;51.052;13.772;2022-08-26T07:04:49;100007.00;;;21.08;87.39
19114;BME280;9689;51.052;13.772;2022-08-26T07:09:55;100003.38;;;21.25;86.22
19114;BME280;9689;51.052;13.772;2022-08-26T07:14:57;100000.84;;;21.23;85.71
19114;BME280;9689;51.052;13.772;2022-08-26T07:19:58;100006.06;;;21.23;85.10
19114;BME280;9689;51.052;13.772;2022-08-26T07:24:59;100010.78;;;21.60;84.03
19114;BME280;9689;51.052;13.772;2022-08-26T07:30:05;100003.44;;;21.94;83.21
19114;BME280;9689;51.052;13.772;2022-08-26T07:35:06;100004.22;;;22.09;81.71
19114;BME280;9689;51.052;13.772;2022-08-26T07:40:08;99996.41;;;22.22;81.36
19114;BME280;9689;51.052;13.772;2022-08-26T07:45:11;99994.28;;;22.55;80.83
19114;BME280;9689;51.052;13.772;2022-08-26T07:50:12;99990.94;;;22.53;80.62
19114;BME280;9689;51.052;13.772;2022-08-26T07:55:14;99988.97;;;22.70;79.65
19114;BME280;9689;51.052;13.772;2022-08-26T08:00:16;99985.00;;;22.90;78.62
19114;BME280;9689;51.052;13.772;2022-08-26T08:05:20;99982.16;;;23.06;78.11
19114;BME280;9689;51.052;13.772;2022-08-26T08:10:32;99987.38;;;23.19;77.30
19114;BME280;9689;51.052;13.772;2022-08-26T08:15:34;99980.25;;;23.34;76.03
19114;BME280;9689;51.052;13.772;2022-08-26T08:20:37;99972.44;;;23.45;75.77
19114;BME280;9689;51.052;13.772;2022-08-26T08:25:43;99956.88;;;23.68;74.67
19114;BME280;9689;51.052;13.772;2022-08-26T08:30:45;99972.25;;;23.97;73.74
19114;BME280;9689;51.052;13.772;2022-08-26T08:35:46;99964.47;;;24.20;72.55
19114;BME280;9689;51.052;13.772;2022-08-26T08:40:48;99944.25;;;24.45;71.66
19114;BME280;9689;51.052;13.772;2022-08-26T08:45:53;99938.78;;;24.60;70.85
19114;BME280;9689;51.052;13.772;2022-08-26T08:51:03;99926.38;;;24.73;70.44
19114;BME280;9689;51.052;13.772;2022-08-26T08:56:11;99927.25;;;24.96;69.38
19114;BME280;9689;51.052;13.772;2022-08-26T09:01:29;99927.66;;;25.36;68.53
19114;BME280;9689;51.052;13.772;2022-08-26T09:06:37;99935.22;;;25.73;66.92
19114;BME280;9689;51.052;13.772;2022-08-26T09:11:41;99923.88;;;26.15;65.62
19114;BME280;9689;51.052;13.772;2022-08-26T09:16:47;99913.06;;;26.09;65.32
19114;BME280;9689;51.052;13.772;2022-08-26T09:21:54;99915.75;;;26.18;64.74
19114;BME280;9689;51.052;13.772;2022-08-26T09:26:55;99908.34;;;25.70;66.52
19114;BME280;9689;51.052;13.772;2022-08-26T09:32:16;99906.28;;;25.41;67.34
19114;BME280;9689;51.052;13.772;2022-08-26T09:37:35;99905.22;;;25.32;67.76
19114;BME280;9689;51.052;13.772;2022-08-26T09:42:37;99904.72;;;25.38;67.76
19114;BME280;9689;51.052;13.772;2022-08-26T09:47:51;99923.91;;;25.50;67.76
19114;BME280;9689;51.052;13.772;2022-08-26T09:53:06;99905.28;;;25.53;68.13
19114;BME280;9689;51.052;13.772;2022-08-26T09:58:13;99908.38;;;25.47;68.74
19114;BME280;9689;51.052;13.772;2022-08-26T10:03:23;99907.34;;;25.38;68.85
19114;BME280;9689;51.052;13.772;2022-08-26T10:08:29;99889.66;;;25.29;69.26
19114;BME280;9689;51.052;13.772;2022-08-26T10:13:33;99884.47;;;25.06;70.10
19114;BME280;9689;51.052;13.772;2022-08-26T10:18:41;99890.84;;;24.80;73.09
19114;BME280;9689;51.052;13.772;2022-08-26T10:23:46;99902.53;;;24.65;76.08
19114;BME280;9689;51.052;13.772;2022-08-26T10:28:53;99886.97;;;24.50;76.71
19114;BME280;9689;51.052;13.772;2022-08-26T10:33:57;99880.91;;;24.61;77.16
19114;BME280;9689;51.052;13.772;2022-08-26T10:39:02;99866.34;;;24.91;76.63
19114;BME280;9689;51.052;13.772;2022-08-26T10:44:09;99854.22;;;25.23;74.60
19114;BME280;9689;51.052;13.772;2022-08-26T10:49:14;99853.16;;;25.58;72.92
19114;BME280;9689;51.052;13.772;2022-08-26T10:54:19;99866.00;;;25.73;73.17
19114;BME280;9689;51.052;13.772;2022-08-26T10:59:32;99861.81;;;26.34;71.44
19114;BME280;9689;51.052;13.772;2022-08-26T11:04:41;99849.91;;;26.71;68.61
19114;BME280;9689;51.052;13.772;2022-08-26T11:09:47;99841.41;;;27.18;66.85
19114;BME280;9689;51.052;13.772;2022-08-26T11:14:48;99843.13;;;27.59;65.39
19114;BME280;9689;51.052;13.772;2022-08-26T11:20:02;99841.13;;;28.38;62.07
19114;BME280;9689;51.052;13.772;2022-08-26T11:25:12;99843.69;;;28.58;59.74
19114;BME280;9689;51.052;13.772;2022-08-26T11:30:41;99833.88;;;28.68;58.81
19114;BME280;9689;51.052;13.772;2022-08-26T11:35:47;99813.91;;;28.66;59.45
19114;BME280;9689;51.052;13.772;2022-08-26T11:41:05;99796.81;;;28.88;56.31
19114;BME280;9689;51.052;13.772;2022-08-26T11:46:09;99788.34;;;29.39;51.52
19114;BME280;9689;51.052;13.772;2022-08-26T11:51:20;99768.81;;;29.84;49.70
19114;BME280;9689;51.052;13.772;2022-08-26T11:56:26;99753.59;;;30.13;47.55
19114;BME280;9689;51.052;13.772;2022-08-26T12:01:33;99739.44;;;30.04;48.12
19114;BME280;9689;51.052;13.772;2022-08-26T12:06:38;99738.31;;;30.07;47.48
19114;BME280;9689;51.052;13.772;2022-08-26T12:11:44;99732.25;;;29.53;47.41
19114;BME280;9689;51.052;13.772;2022-08-26T12:16:45;99735.41;;;29.57;48.67
19114;BME280;9689;51.052;13.772;2022-08-26T12:21:48;99724.81;;;29.92;48.45
19114;BME280;9689;51.052;13.772;2022-08-26T12:27:06;99719.22;;;29.95;47.22
19114;BME280;9689;51.052;13.772;2022-08-26T12:32:13;99720.84;;;30.31;46.77
19114;BME280;9689;51.052;13.772;2022-08-26T12:37:17;99734.00;;;30.49;46.16
19114;BME280;9689;51.052;13.772;2022-08-26T12:42:37;99719.41;;;30.02;46.24
19114;BME280;9689;51.052;13.772;2022-08-26T12:47:41;99718.56;;;30.44;45.87
19114;BME280;9689;51.052;13.772;2022-08-26T12:52:52;99715.94;;;30.01;46.64
19114;BME280;9689;51.052;13.772;2022-08-26T12:58:17;99724.91;;;30.60;45.05
19114;BME280;9689;51.052;13.772;2022-08-26T13:03:43;99707.88;;;31.20;44.33
19114;BME280;9689;51.052;13.772;2022-08-26T13:08:46;99698.13;;;31.29;43.24
19114;BME280;9689;51.052;13.772;2022-08-26T13:13:50;99701.06;;;31.43;41.58
19114;BME280;9689;51.052;13.772;2022-08-26T13:18:53;99694.19;;;31.65;41.84
19114;BME280;9689;51.052;13.772;2022-08-26T13:23:56;99686.00;;;31.35;42.26
19114;BME280;9689;51.052;13.772;2022-08-26T13:29:01;99686.16;;;31.42;42.43
19114;BME280;9689;51.052;13.772;2022-08-26T13:34:07;99690.66;;;30.75;43.12
19114;BME280;9689;51.052;13.772;2022-08-26T13:39:10;99696.78;;;31.17;41.61
19114;BME280;9689;51.052;13.772;2022-08-26T13:44:12;99699.09;;;30.78;43.40
19114;BME280;9689;51.052;13.772;2022-08-26T13:49:13;99701.78;;;30.10;43.57
19114;BME280;9689;51.052;13.772;2022-08-26T13:54:15;99699.22;;;29.39;45.30
19114;BME280;9689;51.052;13.772;2022-08-26T13:59:16;99687.13;;;29.10;47.14
19114;BME280;9689;51.052;13.772;2022-08-26T14:04:17;99687.38;;;28.99;47.26
19114;BME280;9689;51.052;13.772;2022-08-26T14:09:27;99693.63;;;28.80;48.31
19114;BME280;9689;51.052;13.772;2022-08-26T14:14:28;99709.19;;;28.46;48.58
19114;BME280;9689;51.052;13.772;2022-08-26T14:19:30;99694.00;;;27.64;51.44
19114;BME280;9689;51.052;13.772;2022-08-26T14:24:32;99669.78;;;27.31;52.58
19114;BME280;9689;51.052;13.772;2022-08-26T14:29:33;99673.66;;;27.37;53.08
19114;BME280;9689;51.052;13.772;2022-08-26T14:34:34;99677.44;;;27.72;52.69
19114;BME280;9689;51.052;13.772;2022-08-26T14:39:36;99672.50;;;27.97;52.12
19114;BME280;9689;51.052;13.772;2022-08-26T14:44:37;99663.00;;;28.04;52.19
19114;BME280;9689;51.052;13.772;2022-08-26T14:49:38;99660.56;;;28.21;51.23
19114;BME280;9689;51.052;13.772;2022-08-26T14:54:40;99656.75;;;28.33;50.08
19114;BME280;9689;51.052;13.772;2022-08-26T14:59:43;99646.97;;;29.07;48.57
19114;BME280;9689;51.052;13.772;2022-08-26T15:04:48;99641.25;;;29.20;47.61
19114;BME280;9689;51.052;13.772;2022-08-26T15:09:51;99642.81;;;29.57;47.48
19114;BME280;9689;51.052;13.772;2022-08-26T15:14:51;99650.50;;;29.77;46.12
19114;BME280;9689;51.052;13.772;2022-08-26T15:19:52;99673.81;;;30.16;45.31
19114;BME280;9689;51.052;13.772;2022-08-26T15:24:55;99672.09;;;30.07;45.48
19114;BME280;9689;51.052;13.772;2022-08-26T15:29:55;99664.28;;;29.54;46.48
19114;BME280;9689;51.052;13.772;2022-08-26T15:34:56;99652.56;;;29.30;47.17
19114;BME280;9689;51.052;13.772;2022-08-26T15:39:58;99652.16;;;29.16;47.75
19114;BME280;9689;51.052;13.772;2022-08-26T15:44:59;99647.44;;;29.02;48.43
19114;BME280;9689;51.052;13.772;2022-08-26T15:50:00;99666.97;;;29.36;47.68
19114;BME280;9689;51.052;13.772;2022-08-26T15:55:02;99689.78;;;29.10;47.67
19114;BME280;9689;51.052;13.772;2022-08-26T16:00:04;99686.22;;;28.29;51.07
19114;BME280;9689;51.052;13.772;2022-08-26T16:05:11;99679.50;;;27.78;52.31
19114;BME280;9689;51.052;13.772;2022-08-26T16:10:13;99692.97;;;27.37;53.43
19114;BME280;9689;51.052;13.772;2022-08-26T16:15:14;99707.13;;;26.87;54.35
19114;BME280;9689;51.052;13.772;2022-08-26T16:20:15;99698.66;;;26.54;55.17
19114;BME280;9689;51.052;13.772;2022-08-26T16:25:17;99712.47;;;26.36;55.76
19114;BME280;9689;51.052;13.772;2022-08-26T16:30:19;99710.31;;;26.10;55.95
19114;BME280;9689;51.052;13.772;2022-08-26T16:35:20;99689.16;;;25.81;56.80
19114;BME280;9689;51.052;13.772;2022-08-26T16:40:23;99692.69;;;25.70;57.58
19114;BME280;9689;51.052;13.772;2022-08-26T16:45:25;99690.59;;;25.63;58.14
19114;BME280;9689;51.052;13.772;2022-08-26T16:50:26;99696.78;;;25.93;58.21
19114;BME280;9689;51.052;13.772;2022-08-26T16:55:28;99691.84;;;26.00;57.95
19114;BME280;9689;51.052;13.772;2022-08-26T17:00:31;99683.03;;;25.80;58.28
19114;BME280;9689;51.052;13.772;2022-08-26T17:05:33;99685.41;;;25.09;60.72
19114;BME280;9689;51.052;13.772;2022-08-26T17:10:36;99681.34;;;25.69;59.53
19114;BME280;9689;51.052;13.772;2022-08-26T17:15:37;99686.47;;;25.49;58.31
19114;BME280;9689;51.052;13.772;2022-08-26T17:20:37;99686.59;;;25.69;58.48
19114;BME280;9689;51.052;13.772;2022-08-26T17:25:40;99673.03;;;25.74;57.55
19114;BME280;9689;51.052;13.772;2022-08-26T17:30:41;99660.00;;;25.62;58.85
19114;BME280;9689;51.052;13.772;2022-08-26T17:35:42;99674.19;;;25.07;60.86
19114;BME280;9689;51.052;13.772;2022-08-26T17:40:44;99642.34;;;24.68;62.29
19114;BME280;9689;51.052;13.772;2022-08-26T17:45:45;99643.31;;;24.34;64.00
19114;BME280;9689;51.052;13.772;2022-08-26T17:50:46;99634.41;;;24.02;65.35
19114;BME280;9689;51.052;13.772;2022-08-26T17:55:50;99631.28;;;23.97;65.77
19114;BME280;9689;51.052;13.772;2022-08-26T18:00:52;99651.78;;;23.81;67.08
19114;BME280;9689;51.052;13.772;2022-08-26T18:05:53;99679.19;;;23.65;68.27
19114;BME280;9689;51.052;13.772;2022-08-26T18:10:55;99675.63;;;23.55;68.81
19114;BME280;9689;51.052;13.772;2022-08-26T18:15:55;99678.47;;;23.52;69.52
19114;BME280;9689;51.052;13.772;2022-08-26T18:20:56;99687.03;;;23.42;69.98
19114;BME280;9689;51.052;13.772;2022-08-26T18:26:01;99666.38;;;23.26;70.36
19114;BME280;9689;51.052;13.772;2022-08-26T18:31:02;99667.69;;;23.20;70.56
19114;BME280;9689;51.052;13.772;2022-08-26T18:36:06;99691.00;;;23.24;70.68
19114;BME280;9689;51.052;13.772;2022-08-26T18:41:08;99709.09;;;23.15;71.20
19114;BME280;9689;51.052;13.772;2022-08-26T18:46:10;99720.97;;;23.08;71.91
19114;BME280;9689;51.052;13.772;2022-08-26T18:51:14;99745.25;;;23.10;71.87
19114;BME280;9689;51.052;13.772;2022-08-26T18:56:17;99738.63;;;23.17;71.88
19114;BME280;9689;51.052;13.772;2022-08-26T19:01:18;99738.25;;;23.11;71.83
19114;BME280;9689;51.052;13.772;2022-08-26T19:06:27;99733.91;;;22.98;72.64
19114;BME280;9689;51.052;13.772;2022-08-26T19:11:33;99715.06;;;22.93;73.13
19114;BME280;9689;51.052;13.772;2022-08-26T19:16:43;99725.88;;;22.88;73.28
19114;BME280;9689;51.052;13.772;2022-08-26T19:21:45;99719.09;;;22.86;73.16
19114;BME280;9689;51.052;13.772;2022-08-26T19:26:50;99716.81;;;22.81;73.09
19114;BME280;9689;51.052;13.772;2022-08-26T19:31:56;99737.97;;;22.78;72.73
19114;BME280;9689;51.052;13.772;2022-08-26T19:36:57;99727.50;;;22.78;71.79
19114;BME280;9689;51.052;13.772;2022-08-26T19:41:59;99733.69;;;22.77;71.77
19114;BME280;9689;51.052;13.772;2022-08-26T19:47:00;99710.78;;;22.67;71.66
19114;BME280;9689;51.052;13.772;2022-08-26T19:52:02;99707.91;;;22.59;70.86
19114;BME280;9689;51.052;13.772;2022-08-26T19:57:05;99699.78;;;22.51;71.51
19114;BME280;9689;51.052;13.772;2022-08-26T20:02:07;99683.88;;;22.28;72.45
19114;BME280;9689;51.052;13.772;2022-08-26T20:07:10;99676.13;;;22.39;72.33
19114;BME280;9689;51.052;13.772;2022-08-26T20:12:17;99681.06;;;22.31;72.87
19114;BME280;9689;51.052;13.772;2022-08-26T20:17:18;99694.16;;;22.31;73.46
19114;BME280;9689;51.052;13.772;2022-08-26T20:22:19;99707.41;;;22.28;74.02
19114;BME280;9689;51.052;13.772;2022-08-26T20:27:22;99724.59;;;22.32;74.76
19114;BME280;9689;51.052;13.772;2022-08-26T20:32:37;99727.91;;;22.34;74.83
19114;BME280;9689;51.052;13.772;2022-08-26T20:37:39;99725.81;;;22.39;75.26
19114;BME280;9689;51.052;13.772;2022-08-26T20:42:41;99729.09;;;22.30;76.05
19114;BME280;9689;51.052;13.772;2022-08-26T20:47:42;99718.22;;;22.23;76.99
19114;BME280;9689;51.052;13.772;2022-08-26T20:52:43;99708.22;;;22.04;75.76
19114;BME280;9689;51.052;13.772;2022-08-26T20:57:46;99716.78;;;21.80;76.64
19114;BME280;9689;51.052;13.772;2022-08-26T21:02:47;99705.91;;;21.86;76.76
19114;BME280;9689;51.052;13.772;2022-08-26T21:07:48;99711.56;;;21.93;76.28
19114;BME280;9689;51.052;13.772;2022-08-26T21:12:51;99704.16;;;21.87;76.62
19114;BME280;9689;51.052;13.772;2022-08-26T21:17:51;99707.19;;;21.81;76.71
19114;BME280;9689;51.052;13.772;2022-08-26T21:22:52;99710.06;;;21.50;78.95
19114;BME280;9689;51.052;13.772;2022-08-26T21:27:54;99707.16;;;21.42;80.04
19114;BME280;9689;51.052;13.772;2022-08-26T21:32:55;99707.50;;;21.23;83.08
19114;BME280;9689;51.052;13.772;2022-08-26T21:37:56;99713.34;;;21.13;84.40
19114;BME280;9689;51.052;13.772;2022-08-26T21:42:58;99703.06;;;20.97;85.55
19114;BME280;9689;51.052;13.772;2022-08-26T21:47:59;99697.03;;;20.97;85.69
19114;BME280;9689;51.052;13.772;2022-08-26T21:53:00;99685.19;;;20.91;86.70
19114;BME280;9689;51.052;13.772;2022-08-26T21:58:02;99697.81;;;20.84;87.26
19114;BME280;9689;51.052;13.772;2022-08-26T22:03:02;99690.53;;;20.89;87.56
19114;BME280;9689;51.052;13.772;2022-08-26T22:08:03;99690.22;;;20.94;87.17
19114;BME280;9689;51.052;13.772;2022-08-26T22:13:06;99697.59;;;20.87;87.79
19114;BME280;9689;51.052;13.772;2022-08-26T22:18:06;99703.66;;;20.88;88.36
19114;BME280;9689;51.052;13.772;2022-08-26T22:23:08;99703.84;;;20.85;88.33
19114;BME280;9689;51.052;13.772;2022-08-26T22:28:10;99711.84;;;20.82;88.77
19114;BME280;9689;51.052;13.772;2022-08-26T22:33:12;99700.22;;;20.73;88.91
19114;BME280;9689;51.052;13.772;2022-08-26T22:38:13;99696.84;;;20.58;89.78
19114;BME280;9689;51.052;13.772;2022-08-26T22:43:15;99694.75;;;20.63;89.73
19114;BME280;9689;51.052;13.772;2022-08-26T22:48:19;99700.78;;;20.50;90.50
19114;BME280;9689;51.052;13.772;2022-08-26T22:53:20;99697.88;;;20.55;90.49
19114;BME280;9689;51.052;13.772;2022-08-26T22:58:22;99713.66;;;20.39;91.50
19114;BME280;9689;51.052;13.772;2022-08-26T23:03:29;99710.28;;;20.51;90.99
19114;BME280;9689;51.052;13.772;2022-08-26T23:08:30;99715.19;;;20.56;90.96
19114;BME280;9689;51.052;13.772;2022-08-26T23:13:32;99725.53;;;20.58;90.39
19114;BME280;9689;51.052;13.772;2022-08-26T23:18:33;99735.81;;;20.46;90.29
19114;BME280;9689;51.052;13.772;2022-08-26T23:23:34;99740.16;;;20.46;91.13
19114;BME280;9689;51.052;13.772;2022-08-26T23:28:36;99749.13;;;20.42;92.63
19114;BME280;9689;51.052;13.772;2022-08-26T23:33:38;99756.41;;;20.36;93.54
19114;BME280;9689;51.052;13.772;2022-08-26T23:38:56;99750.47;;;20.20;94.78
19114;BME280;9689;51.052;13.772;2022-08-26T23:43:58;99751.66;;;20.14;95.34
19114;BME280;9689;51.052;13.772;2022-08-26T23:49:03;99751.19;;;20.07;96.08
19114;BME280;9689;51.052;13.772;2022-08-26T23:54:03;99759.97;;;20.06;96.41
19114;BME280;9689;51.052;13.772;2022-08-26T23:59:08;99753.25;;;20.02;96.91
